Time;durP1;ratioP1;P1;durP2;ratioP2;P2;SDS_P1;SDS_P2;PMS_P1;PMS_P2;Temp;Humidity;BMP_temperature;BMP_pressure;BME280_temperature;BME280_humidity;BME280_pressure;Samples;Min_cycle;Max_cycle;Signal;HPM_P1;HPM_P2
2023/09/06 00:02:19;;;;;;;13.10;8.23;;;;;;;;;;5100228;28;20035;-73
2023/09/06 00:04:46;;;;;;;12.50;8.27;;;;;;;;;;5093113;28;20039;-73
2023/09/06 00:07:15;;;;;;;12.27;7.90;;;;;;;;;;5105740;28;20107;-73
2023/09/06 00:09:41;;;;;;;11.27;8.18;;;;;;;;;;5082009;28;20478;-73
2023/09/06 00:12:07;;;;;;;10.40;7.22;;;;;;;;;;5104766;28;20051;-72
2023/09/06 00:14:36;;;;;;;11.63;7.80;;;;;;;;;;5102010;28;20453;-72
2023/09/06 00:17:02;;;;;;;13.70;8.05;;;;;;;;;;5104594;28;20027;-73
2023/09/06 00:19:29;;;;;;;10.15;7.10;;;;;;;;;;5102655;28;20093;-73
2023/09/06 00:21:59;;;;;;;11.88;8.07;;;;;;;;;;5105121;28;20031;-73
2023/09/06 00:24:25;;;;;;;9.75;7.70;;;;;;;;;;5104663;27;20469;-72
2023/09/06 00:26:51;;;;;;;11.35;7.40;;;;;;;;;;5081273;28;20489;-73
2023/09/06 00:29:17;;;;;;;13.43;7.80;;;;;;;;;;5103074;28;20023;-73
2023/09/06 00:31:43;;;;;;;18.80;8.25;;;;;;;;;;5104637;28;20035;-72
2023/09/06 00:34:09;;;;;;;10.02;8.23;;;;;;;;;;5099939;27;20027;-73
2023/09/06 00:36:35;;;;;;;11.82;7.45;;;;;;;;;;5101011;28;20398;-72
2023/09/06 00:39:04;;;;;;;11.60;7.70;;;;;;;;;;5094797;28;20043;-72
2023/09/06 00:41:33;;;;;;;16.25;7.95;;;;;;;;;;5101393;28;20364;-72
2023/09/06 00:43:59;;;;;;;13.15;7.55;;;;;;;;;;5085472;28;20038;-72
2023/09/06 00:46:28;;;;;;;10.15;7.47;;;;;;;;;;5091575;28;20436;-72
2023/09/06 00:48:55;;;;;;;12.70;8.82;;;;;;;;;;5100833;28;20451;-73
2023/09/06 00:51:21;;;;;;;15.23;8.30;;;;;;;;;;5097928;28;20032;-73
2023/09/06 00:53:48;;;;;;;11.13;8.20;;;;;;;;;;5101826;28;20082;-73
2023/09/06 00:56:17;;;;;;;15.32;7.60;;;;;;;;;;5097658;28;20016;-72
2023/09/06 00:58:43;;;;;;;14.73;8.32;;;;;;;;;;5100607;28;20476;-72
2023/09/06 01:01:11;;;;;;;13.10;8.63;;;;;;;;;;5094270;28;20023;-73
2023/09/06 01:03:40;;;;;;;11.18;7.80;;;;;;;;;;5095936;28;20031;-73
2023/09/06 01:06:06;;;;;;;11.18;7.65;;;;;;;;;;5098929;28;20053;-73
2023/09/06 01:08:37;;;;;;;11.43;7.97;;;;;;;;;;5082356;28;20368;-73
2023/09/06 01:11:21;;;;;;;11.07;8.27;;;;;;;;;;5099414;28;20448;-73
2023/09/06 01:13:48;;;;;;;13.02;7.90;;;;;;;;;;5102612;28;20061;-73
2023/09/06 01:16:16;;;;;;;14.90;8.13;;;;;;;;;;5099306;28;20051;-72
2023/09/06 01:18:43;;;;;;;11.00;8.80;;;;;;;;;;5102455;28;20020;-73
2023/09/06 01:21:11;;;;;;;11.45;8.82;;;;;;;;;;5104804;28;20102;-73
2023/09/06 01:23:42;;;;;;;12.50;7.65;;;;;;;;;;5101806;28;20020;-73
2023/09/06 01:26:08;;;;;;;12.50;8.07;;;;;;;;;;5097651;28;20031;-73
2023/09/06 01:28:35;;;;;;;12.50;8.23;;;;;;;;;;5097384;28;20053;-72
2023/09/06 01:31:01;;;;;;;13.70;8.38;;;;;;;;;;5084565;28;20032;-73
2023/09/06 01:33:31;;;;;;;14.23;9.13;;;;;;;;;;5100498;28;20388;-73
2023/09/06 01:35:58;;;;;;;17.63;9.23;;;;;;;;;;5104658;28;20503;-74
2023/09/06 01:38:24;;;;;;;13.23;8.50;;;;;;;;;;5102166;28;20548;-73
2023/09/06 01:40:50;;;;;;;14.13;8.10;;;;;;;;;;5101683;28;20034;-73
2023/09/06 01:43:18;;;;;;;10.50;8.45;;;;;;;;;;5089525;28;20027;-73
2023/09/06 01:45:51;;;;;;;14.27;9.85;;;;;;;;;;5083413;28;20036;-74
2023/09/06 01:48:20;;;;;;;13.25;9.38;;;;;;;;;;5105501;28;20043;-73
2023/09/06 01:50:46;;;;;;;12.60;7.88;;;;;;;;;;5078672;28;20515;-72
2023/09/06 01:53:15;;;;;;;12.75;9.10;;;;;;;;;;5102781;28;20164;-73
2023/09/06 01:55:42;;;;;;;14.18;8.23;;;;;;;;;;5101954;28;21635;-72
2023/09/06 01:58:09;;;;;;;13.63;8.50;;;;;;;;;;5097438;28;20074;-72
2023/09/06 02:00:37;;;;;;;15.43;10.13;;;;;;;;;;5100895;28;20118;-73
2023/09/06 02:03:03;;;;;;;15.15;9.40;;;;;;;;;;5104432;28;20452;-73
2023/09/06 02:05:33;;;;;;;13.20;9.55;;;;;;;;;;5102403;28;20047;-72
2023/09/06 02:07:59;;;;;;;12.93;9.90;;;;;;;;;;5100473;28;20404;-72
2023/09/06 02:10:25;;;;;;;17.38;10.15;;;;;;;;;;5101182;28;21057;-73
2023/09/06 02:12:52;;;;;;;14.10;9.02;;;;;;;;;;5104481;28;20114;-73
2023/09/06 02:15:18;;;;;;;14.05;9.88;;;;;;;;;;5099861;28;20036;-73
2023/09/06 02:17:44;;;;;;;14.48;9.20;;;;;;;;;;5104471;28;20348;-72
2023/09/06 02:20:20;;;;;;;12.68;9.02;;;;;;;;;;5076645;28;20020;-73
2023/09/06 02:22:47;;;;;;;17.08;9.75;;;;;;;;;;5082447;28;20118;-73
2023/09/06 02:25:14;;;;;;;12.95;9.00;;;;;;;;;;5091914;28;20032;-73
2023/09/06 02:27:40;;;;;;;11.57;8.73;;;;;;;;;;5103592;28;20023;-72
2023/09/06 02:30:07;;;;;;;15.27;10.45;;;;;;;;;;5101524;28;20031;-73
2023/09/06 02:32:34;;;;;;;12.80;8.07;;;;;;;;;;5097252;28;20111;-72
2023/09/06 02:35:00;;;;;;;15.80;8.95;;;;;;;;;;5089016;28;20133;-72
2023/09/06 02:37:26;;;;;;;14.55;9.23;;;;;;;;;;5080766;28;20027;-74
2023/09/06 02:39:55;;;;;;;21.48;10.98;;;;;;;;;;5104664;28;20063;-73
2023/09/06 02:42:22;;;;;;;9.57;7.55;;;;;;;;;;5098408;28;20023;-73
2023/09/06 02:44:48;;;;;;;12.75;8.68;;;;;;;;;;5098237;28;20070;-72
2023/09/06 02:47:23;;;;;;;13.35;9.40;;;;;;;;;;5093291;28;20024;-73
2023/09/06 02:49:52;;;;;;;13.52;9.93;;;;;;;;;;5099561;28;20043;-73
2023/09/06 02:52:30;;;;;;;13.60;9.35;;;;;;;;;;5100283;28;20023;-72
2023/09/06 02:55:03;;;;;;;15.95;9.90;;;;;;;;;;5103177;28;20028;-73
2023/09/06 02:57:30;;;;;;;13.50;9.50;;;;;;;;;;5103263;28;20463;-73
2023/09/06 02:59:56;;;;;;;17.20;9.73;;;;;;;;;;5086396;28;20028;-73
2023/09/06 03:02:22;;;;;;;16.88;10.07;;;;;;;;;;5090131;28;20422;-73
2023/09/06 03:04:54;;;;;;;15.40;10.85;;;;;;;;;;5096632;28;20020;-73
2023/09/06 03:07:20;;;;;;;19.02;10.23;;;;;;;;;;5084018;28;20023;-73
2023/09/06 03:09:47;;;;;;;15.75;11.07;;;;;;;;;;5090303;28;20448;-73
2023/09/06 03:12:14;;;;;;;16.45;10.15;;;;;;;;;;5105358;28;20085;-73
2023/09/06 03:14:44;;;;;;;16.90;11.25;;;;;;;;;;5106675;28;20020;-72
2023/09/06 03:17:11;;;;;;;16.58;10.73;;;;;;;;;;5102282;28;20351;-72
2023/09/06 03:19:40;;;;;;;19.40;11.52;;;;;;;;;;5106548;28;20023;-73
2023/09/06 03:22:09;;;;;;;20.48;11.43;;;;;;;;;;5104066;28;20027;-73
2023/09/06 03:24:40;;;;;;;14.10;9.45;;;;;;;;;;5085419;28;20366;-73
2023/09/06 03:27:10;;;;;;;14.85;9.90;;;;;;;;;;5103507;28;20031;-72
2023/09/06 03:29:36;;;;;;;15.55;9.18;;;;;;;;;;5082117;28;20028;-73
2023/09/06 03:32:03;;;;;;;11.00;8.70;;;;;;;;;;5101004;28;20024;-73
2023/09/06 03:34:29;;;;;;;10.43;9.07;;;;;;;;;;5101263;28;20455;-72
2023/09/06 03:36:56;;;;;;;12.80;9.57;;;;;;;;;;5104438;28;20028;-73
2023/09/06 03:39:28;;;;;;;11.50;8.43;;;;;;;;;;5088110;28;20066;-74
2023/09/06 03:41:55;;;;;;;12.00;8.77;;;;;;;;;;5105802;28;20032;-73
2023/09/06 03:44:23;;;;;;;15.30;9.05;;;;;;;;;;5102122;28;20251;-73
2023/09/06 03:46:51;;;;;;;11.40;9.15;;;;;;;;;;5102809;28;20387;-73
2023/09/06 03:49:18;;;;;;;12.65;9.10;;;;;;;;;;5105978;28;20032;-73
2023/09/06 03:51:45;;;;;;;13.02;9.32;;;;;;;;;;5081003;28;20540;-73
2023/09/06 03:54:12;;;;;;;10.48;8.43;;;;;;;;;;5104519;28;20024;-73
2023/09/06 03:56:38;;;;;;;13.73;9.05;;;;;;;;;;5099953;28;20102;-74
2023/09/06 03:59:08;;;;;;;12.10;8.40;;;;;;;;;;5096163;28;20028;-73
2023/09/06 04:01:34;;;;;;;11.27;8.57;;;;;;;;;;5101162;28;20510;-73
2023/09/06 04:04:01;;;;;;;13.95;8.95;;;;;;;;;;5105969;28;20016;-73
2023/09/06 04:06:29;;;;;;;15.77;9.13;;;;;;;;;;5105325;28;20027;-73
2023/09/06 04:08:55;;;;;;;11.25;8.77;;;;;;;;;;5099539;28;20220;-73
2023/09/06 04:11:22;;;;;;;12.10;9.25;;;;;;;;;;5107374;28;20027;-72
2023/09/06 04:13:51;;;;;;;14.02;9.98;;;;;;;;;;5097913;28;20023;-74
2023/09/06 04:16:17;;;;;;;12.65;9.68;;;;;;;;;;5101791;28;20058;-73
2023/09/06 04:18:43;;;;;;;12.13;9.10;;;;;;;;;;5106787;28;20398;-73
2023/09/06 04:21:09;;;;;;;10.57;8.18;;;;;;;;;;5102512;28;20027;-74
2023/09/06 04:23:40;;;;;;;12.57;8.73;;;;;;;;;;5092767;28;20081;-73
2023/09/06 04:26:07;;;;;;;15.75;9.18;;;;;;;;;;5097229;28;20057;-74
2023/09/06 04:28:33;;;;;;;16.23;9.75;;;;;;;;;;5085202;28;20035;-73
2023/09/06 04:31:01;;;;;;;13.35;9.25;;;;;;;;;;5104139;28;20030;-74
2023/09/06 04:33:28;;;;;;;13.82;9.75;;;;;;;;;;5095719;28;20036;-73
2023/09/06 04:35:54;;;;;;;13.38;9.30;;;;;;;;;;5101481;28;20054;-73
2023/09/06 04:38:23;;;;;;;13.95;9.65;;;;;;;;;;5101464;28;20019;-72
2023/09/06 04:40:51;;;;;;;12.02;9.05;;;;;;;;;;5082568;28;20195;-73
2023/09/06 04:43:18;;;;;;;15.98;8.70;;;;;;;;;;5085924;28;20057;-73
2023/09/06 04:45:45;;;;;;;11.23;8.80;;;;;;;;;;5101816;28;20081;-74
2023/09/06 04:48:16;;;;;;;10.65;8.10;;;;;;;;;;5104061;28;20515;-73
2023/09/06 04:50:43;;;;;;;14.02;8.77;;;;;;;;;;5105291;28;20016;-72
2023/09/06 04:53:11;;;;;;;16.08;10.20;;;;;;;;;;5104308;28;20043;-73
2023/09/06 04:55:37;;;;;;;11.95;7.85;;;;;;;;;;5104670;28;20024;-73
2023/09/06 04:58:04;;;;;;;11.43;9.30;;;;;;;;;;5103000;28;20353;-73
2023/09/06 05:00:35;;;;;;;12.55;8.20;;;;;;;;;;5101831;28;20072;-74
2023/09/06 05:03:02;;;;;;;14.50;8.48;;;;;;;;;;5103932;28;20091;-74
2023/09/06 05:05:29;;;;;;;15.25;9.00;;;;;;;;;;5100210;28;20114;-74
2023/09/06 05:07:56;;;;;;;11.75;9.63;;;;;;;;;;5102286;28;20028;-73
2023/09/06 05:10:22;;;;;;;12.93;9.45;;;;;;;;;;5101248;28;20019;-73
2023/09/06 05:12:48;;;;;;;12.13;9.07;;;;;;;;;;5086649;28;20024;-73
2023/09/06 05:15:15;;;;;;;11.85;9.40;;;;;;;;;;5104251;28;20039;-74
2023/09/06 05:17:41;;;;;;;14.05;9.70;;;;;;;;;;5097407;28;20024;-73
2023/09/06 05:20:28;;;;;;;12.18;9.48;;;;;;;;;;5104333;28;20023;-74
2023/09/06 05:22:58;;;;;;;14.70;10.70;;;;;;;;;;5100934;28;20038;-72
2023/09/06 05:25:24;;;;;;;12.50;9.52;;;;;;;;;;5100358;28;20035;-74
2023/09/06 05:27:51;;;;;;;15.65;9.95;;;;;;;;;;5094212;28;20490;-73
2023/09/06 05:30:18;;;;;;;15.68;10.68;;;;;;;;;;5103046;28;20038;-73
2023/09/06 05:32:44;;;;;;;15.75;11.27;;;;;;;;;;5098386;28;20031;-74
2023/09/06 05:35:10;;;;;;;15.75;9.82;;;;;;;;;;5098469;28;20360;-74
2023/09/06 05:37:37;;;;;;;16.55;11.40;;;;;;;;;;5101409;28;20110;-74
2023/09/06 05:40:06;;;;;;;18.50;10.90;;;;;;;;;;5101761;28;20027;-74
2023/09/06 05:42:32;;;;;;;16.35;11.20;;;;;;;;;;5097556;27;20479;-74
2023/09/06 05:44:58;;;;;;;13.95;10.48;;;;;;;;;;5103577;28;20050;-74
2023/09/06 05:47:24;;;;;;;13.68;9.50;;;;;;;;;;5096133;28;20399;-74
2023/09/06 05:49:55;;;;;;;12.35;8.98;;;;;;;;;;5100172;28;20024;-74
2023/09/06 05:52:22;;;;;;;11.18;8.32;;;;;;;;;;5101281;28;20040;-74
2023/09/06 05:54:48;;;;;;;13.70;8.85;;;;;;;;;;5101002;28;20118;-74
2023/09/06 05:57:14;;;;;;;13.32;9.07;;;;;;;;;;5100623;28;20038;-74
2023/09/06 05:59:41;;;;;;;13.38;9.20;;;;;;;;;;5104925;28;20015;-75
2023/09/06 06:02:07;;;;;;;12.20;9.43;;;;;;;;;;5098504;28;20035;-74
2023/09/06 06:04:34;;;;;;;9.80;8.80;;;;;;;;;;5103122;28;20038;-74
2023/09/06 06:07:00;;;;;;;12.13;9.15;;;;;;;;;;5076611;28;20053;-74
2023/09/06 06:09:27;;;;;;;14.82;9.57;;;;;;;;;;5097106;28;20019;-74
2023/09/06 06:11:53;;;;;;;15.30;8.95;;;;;;;;;;5099594;28;20028;-74
2023/09/06 06:14:20;;;;;;;13.43;10.55;;;;;;;;;;5103487;28;20123;-74
2023/09/06 06:16:46;;;;;;;11.93;8.93;;;;;;;;;;5078467;28;20047;-75
2023/09/06 06:19:13;;;;;;;13.27;8.77;;;;;;;;;;5101610;28;21230;-75
2023/09/06 06:21:39;;;;;;;13.13;9.43;;;;;;;;;;5100942;28;20023;-75
2023/09/06 06:24:09;;;;;;;12.30;8.85;;;;;;;;;;5101058;28;20028;-76
2023/09/06 06:26:35;;;;;;;17.48;10.15;;;;;;;;;;5083541;28;20039;-75
2023/09/06 06:29:04;;;;;;;17.20;9.82;;;;;;;;;;5100385;28;20883;-75
2023/09/06 06:31:31;;;;;;;17.65;11.25;;;;;;;;;;5102816;27;20035;-75
2023/09/06 06:33:59;;;;;;;16.35;10.15;;;;;;;;;;5106169;27;20548;-75
2023/09/06 06:36:25;;;;;;;13.40;10.50;;;;;;;;;;5102352;28;20452;-74
2023/09/06 06:38:51;;;;;;;15.15;10.50;;;;;;;;;;5104624;28;20026;-75
2023/09/06 06:41:22;;;;;;;18.00;10.70;;;;;;;;;;5099714;28;20024;-74
2023/09/06 06:43:52;;;;;;;17.30;10.05;;;;;;;;;;5105125;28;20440;-75
2023/09/06 06:46:31;;;;;;;13.63;10.35;;;;;;;;;;5103717;28;20494;-75
2023/09/06 06:48:57;;;;;;;15.82;10.45;;;;;;;;;;5104967;28;20028;-75
2023/09/06 06:51:27;;;;;;;15.73;11.10;;;;;;;;;;5103837;27;20419;-75
2023/09/06 06:53:53;;;;;;;13.70;10.38;;;;;;;;;;5105134;27;20036;-74
2023/09/06 06:56:21;;;;;;;13.77;10.60;;;;;;;;;;5106067;28;20030;-74
2023/09/06 06:58:48;;;;;;;15.52;9.82;;;;;;;;;;5104203;28;20027;-75
2023/09/06 07:01:17;;;;;;;14.35;9.45;;;;;;;;;;5102866;28;20106;-75
2023/09/06 07:03:43;;;;;;;14.77;10.32;;;;;;;;;;5106344;28;20039;-74
2023/09/06 07:06:09;;;;;;;15.18;9.38;;;;;;;;;;5100814;28;20027;-74
2023/09/06 07:08:36;;;;;;;14.38;9.77;;;;;;;;;;5107902;28;20031;-75
2023/09/06 07:11:06;;;;;;;14.80;9.40;;;;;;;;;;5098105;28;20080;-75
2023/09/06 07:13:34;;;;;;;12.95;8.88;;;;;;;;;;5103103;28;20581;-75
2023/09/06 07:16:00;;;;;;;17.73;9.43;;;;;;;;;;5103131;28;20047;-74
2023/09/06 07:18:26;;;;;;;13.00;8.90;;;;;;;;;;5105198;28;20468;-75
2023/09/06 07:20:53;;;;;;;11.75;7.97;;;;;;;;;;5104894;28;20031;-75
2023/09/06 07:23:19;;;;;;;6.07;4.13;;;;;;;;;;5086080;28;20131;-76
2023/09/06 07:25:46;;;;;;;4.07;3.05;;;;;;;;;;5081710;28;20051;-75
2023/09/06 07:28:13;;;;;;;5.30;2.95;;;;;;;;;;5103553;28;20042;-75
2023/09/06 07:30:39;;;;;;;4.38;2.53;;;;;;;;;;5104993;28;20024;-75
2023/09/06 07:33:05;;;;;;;4.38;2.47;;;;;;;;;;5102971;28;20030;-75
2023/09/06 07:35:32;;;;;;;5.82;2.88;;;;;;;;;;5087517;28;20054;-75
2023/09/06 07:37:58;;;;;;;4.15;3.10;;;;;;;;;;5098633;28;20056;-76
2023/09/06 07:40:24;;;;;;;4.60;3.10;;;;;;;;;;5082474;28;20111;-75
2023/09/06 07:42:51;;;;;;;6.35;2.70;;;;;;;;;;5096785;28;20065;-75
2023/09/06 07:45:17;;;;;;;7.15;2.88;;;;;;;;;;5102669;28;20126;-75
2023/09/06 07:47:43;;;;;;;4.35;2.60;;;;;;;;;;5084900;28;20444;-75
2023/09/06 07:50:12;;;;;;;6.95;3.42;;;;;;;;;;5102522;28;20073;-75
2023/09/06 07:52:39;;;;;;;5.03;3.20;;;;;;;;;;5106578;28;20027;-75
2023/09/06 07:55:06;;;;;;;6.57;2.40;;;;;;;;;;5103372;28;20468;-75
2023/09/06 07:57:32;;;;;;;5.95;2.47;;;;;;;;;;5104410;28;20024;-76
2023/09/06 07:59:58;;;;;;;4.40;2.85;;;;;;;;;;5108938;28;20596;-76
2023/09/06 08:02:25;;;;;;;5.55;2.30;;;;;;;;;;5106426;28;20024;-75
2023/09/06 08:04:51;;;;;;;3.30;2.40;;;;;;;;;;5105461;28;20031;-75
2023/09/06 08:07:17;;;;;;;5.95;2.50;;;;;;;;;;5088848;28;20036;-76
2023/09/06 08:09:44;;;;;;;6.75;3.10;;;;;;;;;;5106639;28;20114;-75
2023/09/06 08:12:10;;;;;;;6.18;2.72;;;;;;;;;;5086676;28;20027;-75
2023/09/06 08:14:37;;;;;;;3.75;2.35;;;;;;;;;;5104485;28;20034;-75
2023/09/06 08:17:03;;;;;;;6.85;2.70;;;;;;;;;;5101820;28;20447;-75
2023/09/06 08:19:30;;;;;;;5.80;2.40;;;;;;;;;;5108322;28;20149;-75
2023/09/06 08:21:56;;;;;;;4.05;2.58;;;;;;;;;;5084629;28;20031;-75
2023/09/06 08:24:23;;;;;;;6.15;3.97;;;;;;;;;;5088538;28;20023;-75
2023/09/06 08:26:49;;;;;;;4.05;2.40;;;;;;;;;;5084924;28;20039;-75
2023/09/06 08:29:15;;;;;;;2.55;2.00;;;;;;;;;;5102625;28;20227;-75
2023/09/06 08:31:41;;;;;;;4.45;2.38;;;;;;;;;;5099856;28;20028;-75
2023/09/06 08:34:08;;;;;;;4.20;2.13;;;;;;;;;;5098457;28;20296;-75
2023/09/06 08:36:34;;;;;;;3.65;2.60;;;;;;;;;;5080060;28;20072;-75
2023/09/06 08:39:00;;;;;;;5.82;2.42;;;;;;;;;;5097200;28;20023;-75
2023/09/06 08:41:27;;;;;;;3.08;1.92;;;;;;;;;;5105874;28;20057;-76
2023/09/06 08:43:53;;;;;;;6.30;2.50;;;;;;;;;;5103666;27;20028;-75
2023/09/06 08:46:22;;;;;;;3.40;2.22;;;;;;;;;;5100707;28;20023;-76
2023/09/06 08:48:49;;;;;;;4.65;2.10;;;;;;;;;;5101194;28;20046;-76
2023/09/06 08:51:16;;;;;;;4.15;2.25;;;;;;;;;;5103022;28;20124;-75
2023/09/06 08:53:43;;;;;;;2.85;2.47;;;;;;;;;;5083441;28;20107;-75
2023/09/06 08:56:10;;;;;;;4.20;2.10;;;;;;;;;;5095681;28;20031;-77
2023/09/06 08:58:36;;;;;;;3.03;2.10;;;;;;;;;;5101744;27;20367;-75
2023/09/06 09:01:06;;;;;;;2.53;2.08;;;;;;;;;;5097753;28;20047;-72
2023/09/06 09:03:32;;;;;;;3.72;2.20;;;;;;;;;;5085999;28;20573;-71
2023/09/06 09:05:59;;;;;;;2.83;2.40;;;;;;;;;;5096549;28;20054;-74
2023/09/06 09:08:30;;;;;;;8.02;2.40;;;;;;;;;;5101896;28;20061;-74
2023/09/06 09:11:13;;;;;;;3.63;2.40;;;;;;;;;;5092210;28;20126;-72
2023/09/06 09:13:40;;;;;;;3.60;2.20;;;;;;;;;;5090759;28;20028;-72
2023/09/06 09:16:08;;;;;;;3.05;2.10;;;;;;;;;;5098287;28;20399;-72
2023/09/06 09:18:34;;;;;;;4.25;2.13;;;;;;;;;;5094636;28;20517;-72
2023/09/06 09:21:03;;;;;;;2.78;2.00;;;;;;;;;;5089839;28;20138;-73
2023/09/06 09:23:30;;;;;;;5.60;3.13;;;;;;;;;;5091408;28;20535;-73
2023/09/06 09:25:57;;;;;;;4.63;2.17;;;;;;;;;;5096575;28;20031;-73
2023/09/06 09:28:24;;;;;;;4.15;2.20;;;;;;;;;;5094242;28;20035;-73
2023/09/06 09:30:51;;;;;;;5.40;2.58;;;;;;;;;;5091388;28;20554;-74
2023/09/06 09:33:18;;;;;;;4.25;2.22;;;;;;;;;;5096701;28;20032;-72
2023/09/06 09:35:47;;;;;;;3.95;2.28;;;;;;;;;;5072065;28;20027;-73
2023/09/06 09:38:13;;;;;;;4.10;2.13;;;;;;;;;;5095393;28;20475;-71
2023/09/06 09:40:40;;;;;;;5.03;2.10;;;;;;;;;;5076420;28;20110;-70
2023/09/06 09:43:06;;;;;;;3.25;2.13;;;;;;;;;;5091430;28;21899;-74
2023/09/06 09:45:43;;;;;;;5.13;2.00;;;;;;;;;;5089906;28;20355;-71
2023/09/06 09:48:10;;;;;;;4.45;2.05;;;;;;;;;;5085349;28;20123;-71
2023/09/06 09:50:36;;;;;;;3.60;2.20;;;;;;;;;;5069777;28;20058;-71
2023/09/06 09:53:08;;;;;;;4.10;2.42;;;;;;;;;;5090052;28;20977;-71
2023/09/06 09:55:35;;;;;;;4.25;2.00;;;;;;;;;;5090546;28;20028;-73
2023/09/06 09:58:05;;;;;;;5.05;2.20;;;;;;;;;;5090371;28;20380;-70
2023/09/06 10:00:33;;;;;;;5.50;2.33;;;;;;;;;;5095641;28;20368;-69
2023/09/06 10:03:00;;;;;;;3.47;2.15;;;;;;;;;;5095158;28;20028;-68
2023/09/06 10:05:26;;;;;;;4.13;1.92;;;;;;;;;;5100414;28;20035;-69
2023/09/06 10:07:55;;;;;;;3.28;2.10;;;;;;;;;;5092186;28;20968;-69
2023/09/06 10:10:22;;;;;;;3.65;2.00;;;;;;;;;;5078931;28;20023;-72
2023/09/06 10:12:49;;;;;;;2.40;1.92;;;;;;;;;;5098782;28;20164;-69
2023/09/06 10:15:19;;;;;;;4.18;2.20;;;;;;;;;;5099657;28;20415;-69
2023/09/06 10:17:47;;;;;;;5.07;1.95;;;;;;;;;;5096308;28;20023;-69
2023/09/06 10:20:22;;;;;;;5.15;2.53;;;;;;;;;;5100213;28;20027;-70
2023/09/06 10:22:50;;;;;;;3.20;2.28;;;;;;;;;;5078044;28;20110;-69
2023/09/06 10:25:16;;;;;;;3.28;2.10;;;;;;;;;;5099254;28;20475;-70
2023/09/06 10:27:53;;;;;;;4.40;2.00;;;;;;;;;;5098573;28;20052;-70
2023/09/06 10:30:28;;;;;;;4.35;2.15;;;;;;;;;;5097945;28;20126;-69
2023/09/06 10:32:55;;;;;;;3.03;2.13;;;;;;;;;;5089227;28;20027;-70
2023/09/06 10:35:21;;;;;;;4.00;2.03;;;;;;;;;;5099429;28;20106;-70
2023/09/06 10:38:05;;;;;;;6.32;2.53;;;;;;;;;;5098560;28;20106;-69
2023/09/06 10:40:53;;;;;;;4.18;2.33;;;;;;;;;;5099309;28;20173;-70
2023/09/06 10:43:20;;;;;;;4.85;2.47;;;;;;;;;;5094462;28;20899;-69
2023/09/06 10:46:05;;;;;;;4.57;2.13;;;;;;;;;;5096470;28;20108;-70
2023/09/06 10:48:31;;;;;;;4.13;2.28;;;;;;;;;;5099043;28;20830;-70
2023/09/06 10:51:04;;;;;;;4.07;2.28;;;;;;;;;;5096440;28;20041;-69
2023/09/06 10:53:30;;;;;;;3.85;2.30;;;;;;;;;;5098187;28;20024;-70
2023/09/06 10:55:59;;;;;;;4.13;2.20;;;;;;;;;;5097444;28;20170;-70
2023/09/06 10:58:31;;;;;;;5.63;2.08;;;;;;;;;;5096106;28;20023;-70
2023/09/06 11:01:12;;;;;;;5.15;2.30;;;;;;;;;;5101082;28;20051;-67
2023/09/06 11:03:39;;;;;;;4.82;2.25;;;;;;;;;;5104507;28;20440;-71
2023/09/06 11:06:05;;;;;;;2.90;2.03;;;;;;;;;;5094787;28;20396;-70
2023/09/06 11:08:32;;;;;;;3.22;2.17;;;;;;;;;;5105057;28;20053;-71
2023/09/06 11:11:08;;;;;;;5.28;2.28;;;;;;;;;;5090438;28;20502;-71
2023/09/06 11:13:34;;;;;;;3.38;2.40;;;;;;;;;;5099981;28;20034;-71
2023/09/06 11:16:01;;;;;;;4.28;2.95;;;;;;;;;;5099737;28;20051;-70
2023/09/06 11:18:32;;;;;;;2.88;2.38;;;;;;;;;;5105241;28;20031;-72
2023/09/06 11:20:59;;;;;;;4.20;2.25;;;;;;;;;;5102674;28;20446;-71
2023/09/06 11:23:26;;;;;;;3.95;2.35;;;;;;;;;;5102138;28;20098;-71
2023/09/06 11:25:58;;;;;;;4.10;2.47;;;;;;;;;;5085390;28;20551;-72
2023/09/06 11:28:24;;;;;;;3.53;2.10;;;;;;;;;;5085795;28;20655;-71
2023/09/06 11:30:51;;;;;;;2.35;2.00;;;;;;;;;;5103886;28;20053;-72
2023/09/06 11:33:18;;;;;;;3.72;2.10;;;;;;;;;;5088205;28;20031;-70
2023/09/06 11:35:56;;;;;;;6.03;2.28;;;;;;;;;;5105450;27;20383;-71
2023/09/06 11:38:28;;;;;;;3.40;2.00;;;;;;;;;;5105834;28;20076;-71
2023/09/06 11:41:04;;;;;;;2.90;2.33;;;;;;;;;;5103596;28;20524;-71
2023/09/06 11:43:35;;;;;;;4.38;2.17;;;;;;;;;;5098880;28;20029;-71
2023/09/06 11:46:04;;;;;;;3.17;2.00;;;;;;;;;;5105697;28;20248;-71
2023/09/06 11:48:30;;;;;;;4.70;2.35;;;;;;;;;;5103529;28;20034;-70
2023/09/06 11:51:32;;;;;;;5.63;2.10;;;;;;;;;;5099216;28;20097;-70
2023/09/06 11:54:00;;;;;;;3.63;2.10;;;;;;;;;;5092802;28;20040;-71
2023/09/06 11:56:36;;;;;;;3.22;2.00;;;;;;;;;;5102046;28;20031;-71
2023/09/06 11:59:06;;;;;;;2.92;1.90;;;;;;;;;;5103079;28;20110;-71
2023/09/06 12:01:39;;;;;;;3.25;2.10;;;;;;;;;;5103330;28;20030;-70
2023/09/06 12:04:10;;;;;;;3.22;2.15;;;;;;;;;;5104432;28;20082;-71
2023/09/06 12:06:39;;;;;;;3.40;2.10;;;;;;;;;;5099025;28;20391;-70
2023/09/06 12:09:12;;;;;;;3.05;2.03;;;;;;;;;;5104474;28;20652;-70
2023/09/06 12:11:38;;;;;;;3.95;2.20;;;;;;;;;;5095572;28;20036;-70
2023/09/06 12:14:04;;;;;;;2.85;2.20;;;;;;;;;;5070785;28;20027;-68
2023/09/06 12:16:31;;;;;;;3.95;2.10;;;;;;;;;;5094843;28;20731;-69
2023/09/06 12:18:57;;;;;;;3.00;1.83;;;;;;;;;;5091233;28;20031;-69
2023/09/06 12:21:23;;;;;;;4.28;1.90;;;;;;;;;;5091806;28;20107;-69
2023/09/06 12:23:52;;;;;;;4.70;2.00;;;;;;;;;;5090930;28;20026;-68
2023/09/06 12:26:20;;;;;;;4.28;2.10;;;;;;;;;;5087647;28;20038;-68
2023/09/06 12:28:52;;;;;;;3.10;1.90;;;;;;;;;;5094496;28;20866;-69
2023/09/06 12:31:18;;;;;;;3.42;1.90;;;;;;;;;;5077418;28;20380;-73
2023/09/06 12:33:49;;;;;;;2.33;1.80;;;;;;;;;;5093089;28;20570;-71
2023/09/06 12:36:17;;;;;;;4.35;2.03;;;;;;;;;;5089387;28;20031;-70
2023/09/06 12:38:43;;;;;;;4.55;2.10;;;;;;;;;;5091930;28;20053;-70
2023/09/06 12:41:09;;;;;;;4.22;1.80;;;;;;;;;;5092933;28;20023;-69
2023/09/06 12:43:36;;;;;;;3.72;1.90;;;;;;;;;;5074010;28;20028;-69
2023/09/06 12:46:02;;;;;;;3.65;2.10;;;;;;;;;;5090609;27;20502;-69
2023/09/06 12:48:29;;;;;;;3.10;1.98;;;;;;;;;;5084321;28;20781;-70
2023/09/06 12:50:55;;;;;;;4.28;1.90;;;;;;;;;;5098567;28;20131;-69
2023/09/06 12:53:23;;;;;;;4.38;1.90;;;;;;;;;;5097138;28;20034;-69
2023/09/06 12:55:49;;;;;;;4.28;2.05;;;;;;;;;;5098896;28;20383;-69
2023/09/06 12:58:17;;;;;;;3.13;2.08;;;;;;;;;;5096079;28;20034;-71
2023/09/06 13:00:43;;;;;;;3.15;1.95;;;;;;;;;;5097746;27;20042;-69
2023/09/06 13:03:11;;;;;;;4.88;2.00;;;;;;;;;;5096405;28;20049;-68
2023/09/06 13:05:40;;;;;;;3.72;2.40;;;;;;;;;;5090763;28;20477;-69
2023/09/06 13:08:06;;;;;;;4.43;2.22;;;;;;;;;;5095563;28;20027;-70
2023/09/06 13:10:32;;;;;;;3.15;1.95;;;;;;;;;;5097529;28;20129;-72
2023/09/06 13:12:58;;;;;;;2.00;1.80;;;;;;;;;;5095346;28;20027;-73
2023/09/06 13:15:24;;;;;;;5.15;2.20;;;;;;;;;;5098520;28;20050;-73
2023/09/06 13:17:50;;;;;;;3.75;2.20;;;;;;;;;;5095783;28;20027;-72
2023/09/06 13:20:17;;;;;;;5.10;2.15;;;;;;;;;;5090858;28;20478;-73
2023/09/06 13:22:45;;;;;;;2.80;1.75;;;;;;;;;;5096150;28;20522;-70
2023/09/06 13:25:11;;;;;;;5.40;2.00;;;;;;;;;;5079341;28;20032;-73
2023/09/06 13:27:38;;;;;;;3.45;2.00;;;;;;;;;;5097060;28;20558;-71
2023/09/06 13:30:05;;;;;;;3.30;1.90;;;;;;;;;;5098043;28;20102;-72
2023/09/06 13:32:31;;;;;;;5.22;2.03;;;;;;;;;;5093965;28;20023;-71
2023/09/06 13:34:58;;;;;;;4.05;2.00;;;;;;;;;;5095570;28;20063;-72
2023/09/06 13:37:24;;;;;;;4.30;1.83;;;;;;;;;;5094154;28;20024;-72
2023/09/06 13:39:50;;;;;;;3.58;1.75;;;;;;;;;;5097457;28;20483;-73
2023/09/06 13:42:17;;;;;;;3.67;2.10;;;;;;;;;;5086793;28;20031;-71
2023/09/06 13:44:43;;;;;;;2.30;1.80;;;;;;;;;;5078091;28;20451;-72
2023/09/06 13:47:15;;;;;;;4.55;2.00;;;;;;;;;;5090581;28;20027;-71
2023/09/06 13:49:42;;;;;;;5.53;2.08;;;;;;;;;;5094674;28;20059;-66
2023/09/06 13:52:08;;;;;;;3.95;1.90;;;;;;;;;;5097002;28;20494;-67
2023/09/06 13:54:34;;;;;;;3.33;1.83;;;;;;;;;;5096447;28;20107;-67
2023/09/06 13:57:01;;;;;;;3.88;2.45;;;;;;;;;;5094880;28;20050;-66
2023/09/06 13:59:28;;;;;;;5.10;2.22;;;;;;;;;;5098104;28;20062;-67
2023/09/06 14:01:54;;;;;;;2.97;2.17;;;;;;;;;;5096832;28;20031;-70
2023/09/06 14:04:20;;;;;;;2.60;2.00;;;;;;;;;;5096946;28;20496;-66
2023/09/06 14:06:46;;;;;;;3.15;1.63;;;;;;;;;;5096450;28;21099;-66
2023/09/06 14:09:13;;;;;;;4.88;1.90;;;;;;;;;;5096629;28;20351;-67
2023/09/06 14:11:40;;;;;;;3.08;1.90;;;;;;;;;;5094825;28;20118;-67
2023/09/06 14:14:06;;;;;;;3.50;2.00;;;;;;;;;;5094839;28;20461;-67
2023/09/06 14:16:33;;;;;;;4.00;2.03;;;;;;;;;;5095108;28;20527;-67
2023/09/06 14:19:03;;;;;;;3.35;1.92;;;;;;;;;;5095696;28;20493;-68
2023/09/06 14:21:30;;;;;;;3.67;2.10;;;;;;;;;;5095073;28;20043;-67
2023/09/06 14:23:56;;;;;;;3.25;2.20;;;;;;;;;;5094792;28;20024;-69
2023/09/06 14:26:22;;;;;;;3.40;2.20;;;;;;;;;;5098416;28;20027;-69
2023/09/06 14:28:48;;;;;;;3.83;2.20;;;;;;;;;;5096530;28;20471;-69
2023/09/06 14:31:15;;;;;;;4.38;2.38;;;;;;;;;;5093975;28;20039;-69
2023/09/06 14:33:41;;;;;;;3.70;2.30;;;;;;;;;;5092888;28;20040;-69
2023/09/06 14:36:07;;;;;;;3.88;2.08;;;;;;;;;;5067781;28;20032;-68
2023/09/06 14:38:34;;;;;;;5.88;2.35;;;;;;;;;;5077574;28;20038;-68
2023/09/06 14:41:00;;;;;;;4.57;1.80;;;;;;;;;;5098502;28;20026;-66